sensor_id;sensor_type;location;lat;lon;timestamp;P1;durP1;ratioP1;P2;durP2;ratioP2
4448;SDS011;2237;51.870;6.160;2024-01-30T00:00:24;13.00;;;6.28;;
4448;SDS011;2237;51.870;6.160;2024-01-30T00:02:51;12.15;;;6.57;;
4448;SDS011;2237;51.870;6.160;2024-01-30T00:05:17;12.25;;;6.32;;
4448;SDS011;2237;51.870;6.160;2024-01-30T00:07:44;13.05;;;6.45;;
4448;SDS011;2237;51.870;6.160;2024-01-30T00:10:10;15.00;;;6.82;;
4448;SDS011;2237;51.870;6.160;2024-01-30T00:12:37;14.40;;;6.20;;
4448;SDS011;2237;51.870;6.160;2024-01-30T00:15:03;11.77;;;6.30;;
4448;SDS011;2237;51.870;6.160;2024-01-30T00:17:31;13.05;;;6.15;;
4448;SDS011;2237;51.870;6.160;2024-01-30T00:19:57;11.75;;;6.13;;
4448;SDS011;2237;51.870;6.160;2024-01-30T00:22:24;11.98;;;6.43;;
4448;SDS011;2237;51.870;6.160;2024-01-30T00:24:50;12.10;;;6.47;;
4448;SDS011;2237;51.870;6.160;2024-01-30T00:27:17;12.52;;;6.20;;
4448;SDS011;2237;51.870;6.160;2024-01-30T00:29:43;12.65;;;6.65;;
4448;SDS011;2237;51.870;6.160;2024-01-30T00:32:10;10.32;;;5.80;;
4448;SDS011;2237;51.870;6.160;2024-01-30T00:34:39;14.35;;;6.20;;
4448;SDS011;2237;51.870;6.160;2024-01-30T00:37:05;14.65;;;6.45;;
4448;SDS011;2237;51.870;6.160;2024-01-30T00:39:32;12.13;;;6.60;;
4448;SDS011;2237;51.870;6.160;2024-01-30T00:41:58;12.48;;;6.60;;
4448;SDS011;2237;51.870;6.160;2024-01-30T00:44:24;14.32;;;6.32;;
4448;SDS011;2237;51.870;6.160;2024-01-30T00:46:51;9.30;;;5.90;;
4448;SDS011;2237;51.870;6.160;2024-01-30T00:49:17;12.35;;;6.07;;
4448;SDS011;2237;51.870;6.160;2024-01-30T00:51:44;11.13;;;6.10;;
4448;SDS011;2237;51.870;6.160;2024-01-30T00:54:10;14.80;;;6.57;;
4448;SDS011;2237;51.870;6.160;2024-01-30T00:56:37;11.20;;;6.13;;
4448;SDS011;2237;51.870;6.160;2024-01-30T00:59:03;13.25;;;6.32;;
4448;SDS011;2237;51.870;6.160;2024-01-30T01:01:30;11.18;;;6.03;;
4448;SDS011;2237;51.870;6.160;2024-01-30T01:03:56;11.15;;;6.13;;
4448;SDS011;2237;51.870;6.160;2024-01-30T01:06:24;12.80;;;6.57;;
4448;SDS011;2237;51.870;6.160;2024-01-30T01:08:51;13.38;;;6.40;;
4448;SDS011;2237;51.870;6.160;2024-01-30T01:11:17;12.82;;;5.97;;
4448;SDS011;2237;51.870;6.160;2024-01-30T01:13:43;11.30;;;6.22;;
4448;SDS011;2237;51.870;6.160;2024-01-30T01:16:10;12.52;;;6.28;;
4448;SDS011;2237;51.870;6.160;2024-01-30T01:18:36;10.57;;;5.68;;
4448;SDS011;2237;51.870;6.160;2024-01-30T01:21:03;12.15;;;6.20;;
4448;SDS011;2237;51.870;6.160;2024-01-30T01:23:29;11.18;;;5.95;;
4448;SDS011;2237;51.870;6.160;2024-01-30T01:25:56;14.02;;;6.07;;
4448;SDS011;2237;51.870;6.160;2024-01-30T01:28:26;11.55;;;6.05;;
4448;SDS011;2237;51.870;6.160;2024-01-30T01:30:53;11.55;;;5.60;;
4448;SDS011;2237;51.870;6.160;2024-01-30T01:33:19;10.63;;;5.90;;
4448;SDS011;2237;51.870;6.160;2024-01-30T01:35:46;13.63;;;6.13;;
4448;SDS011;2237;51.870;6.160;2024-01-30T01:38:12;14.20;;;6.13;;
4448;SDS011;2237;51.870;6.160;2024-01-30T01:40:39;11.95;;;6.43;;
4448;SDS011;2237;51.870;6.160;2024-01-30T01:43:05;11.77;;;6.00;;
4448;SDS011;2237;51.870;6.160;2024-01-30T01:45:32;13.73;;;6.15;;
4448;SDS011;2237;51.870;6.160;2024-01-30T01:47:58;12.85;;;5.97;;
4448;SDS011;2237;51.870;6.160;2024-01-30T01:50:25;13.90;;;6.00;;
4448;SDS011;2237;51.870;6.160;2024-01-30T01:52:52;13.93;;;6.70;;
4448;SDS011;2237;51.870;6.160;2024-01-30T01:55:21;13.40;;;6.03;;
4448;SDS011;2237;51.870;6.160;2024-01-30T01:57:48;13.23;;;6.57;;
4448;SDS011;2237;51.870;6.160;2024-01-30T02:00:15;12.38;;;5.55;;
4448;SDS011;2237;51.870;6.160;2024-01-30T02:02:42;11.75;;;6.10;;
4448;SDS011;2237;51.870;6.160;2024-01-30T02:05:11;14.07;;;6.28;;
4448;SDS011;2237;51.870;6.160;2024-01-30T02:07:38;10.00;;;5.78;;
4448;SDS011;2237;51.870;6.160;2024-01-30T02:10:05;12.65;;;6.80;;
4448;SDS011;2237;51.870;6.160;2024-01-30T02:12:31;12.85;;;6.15;;
4448;SDS011;2237;51.870;6.160;2024-01-30T02:14:58;12.68;;;6.13;;
4448;SDS011;2237;51.870;6.160;2024-01-30T02:17:24;16.20;;;6.32;;
4448;SDS011;2237;51.870;6.160;2024-01-30T02:19:51;11.10;;;5.72;;
4448;SDS011;2237;51.870;6.160;2024-01-30T02:22:18;12.15;;;5.53;;
4448;SDS011;2237;51.870;6.160;2024-01-30T02:24:46;8.80;;;5.50;;
4448;SDS011;2237;51.870;6.160;2024-01-30T02:27:12;13.18;;;5.82;;
4448;SDS011;2237;51.870;6.160;2024-01-30T02:29:39;11.55;;;6.13;;
4448;SDS011;2237;51.870;6.160;2024-01-30T02:32:05;10.55;;;5.85;;
4448;SDS011;2237;51.870;6.160;2024-01-30T02:34:32;13.52;;;6.00;;
4448;SDS011;2237;51.870;6.160;2024-01-30T02:36:59;15.55;;;5.68;;
4448;SDS011;2237;51.870;6.160;2024-01-30T02:39:25;11.75;;;5.57;;
4448;SDS011;2237;51.870;6.160;2024-01-30T02:41:52;14.27;;;6.15;;
4448;SDS011;2237;51.870;6.160;2024-01-30T02:44:18;13.23;;;5.85;;
4448;SDS011;2237;51.870;6.160;2024-01-30T02:46:44;13.80;;;6.32;;
4448;SDS011;2237;51.870;6.160;2024-01-30T02:49:11;14.57;;;6.07;;
4448;SDS011;2237;51.870;6.160;2024-01-30T02:51:37;13.13;;;5.97;;
4448;SDS011;2237;51.870;6.160;2024-01-30T02:54:04;15.15;;;6.18;;
4448;SDS011;2237;51.870;6.160;2024-01-30T02:56:30;12.65;;;6.10;;
4448;SDS011;2237;51.870;6.160;2024-01-30T02:58:57;10.25;;;6.00;;
4448;SDS011;2237;51.870;6.160;2024-01-30T03:01:23;11.68;;;5.90;;
4448;SDS011;2237;51.870;6.160;2024-01-30T03:03:50;11.45;;;6.18;;
4448;SDS011;2237;51.870;6.160;2024-01-30T03:06:17;11.93;;;6.00;;
4448;SDS011;2237;51.870;6.160;2024-01-30T03:08:46;11.73;;;5.85;;
4448;SDS011;2237;51.870;6.160;2024-01-30T03:11:12;10.80;;;5.65;;
4448;SDS011;2237;51.870;6.160;2024-01-30T03:13:38;10.52;;;5.28;;
4448;SDS011;2237;51.870;6.160;2024-01-30T03:16:06;13.27;;;6.82;;
4448;SDS011;2237;51.870;6.160;2024-01-30T03:18:34;11.77;;;5.55;;
4448;SDS011;2237;51.870;6.160;2024-01-30T03:21:00;12.77;;;5.53;;
4448;SDS011;2237;51.870;6.160;2024-01-30T03:23:27;11.77;;;5.75;;
4448;SDS011;2237;51.870;6.160;2024-01-30T03:25:53;11.02;;;5.35;;
4448;SDS011;2237;51.870;6.160;2024-01-30T03:28:20;11.98;;;6.38;;
4448;SDS011;2237;51.870;6.160;2024-01-30T03:30:46;12.23;;;5.75;;
4448;SDS011;2237;51.870;6.160;2024-01-30T03:33:13;13.30;;;6.40;;
4448;SDS011;2237;51.870;6.160;2024-01-30T03:35:39;15.30;;;6.85;;
4448;SDS011;2237;51.870;6.160;2024-01-30T03:38:05;13.48;;;6.10;;
4448;SDS011;2237;51.870;6.160;2024-01-30T03:40:32;12.40;;;6.38;;
4448;SDS011;2237;51.870;6.160;2024-01-30T03:42:59;12.38;;;5.97;;
4448;SDS011;2237;51.870;6.160;2024-01-30T03:45:25;14.93;;;6.15;;
4448;SDS011;2237;51.870;6.160;2024-01-30T03:47:52;12.68;;;5.72;;
4448;SDS011;2237;51.870;6.160;2024-01-30T03:50:18;10.90;;;5.95;;
4448;SDS011;2237;51.870;6.160;2024-01-30T03:52:45;11.68;;;5.97;;
4448;SDS011;2237;51.870;6.160;2024-01-30T03:55:11;12.07;;;5.90;;
4448;SDS011;2237;51.870;6.160;2024-01-30T03:57:38;12.73;;;5.70;;
4448;SDS011;2237;51.870;6.160;2024-01-30T04:00:04;10.55;;;5.22;;
4448;SDS011;2237;51.870;6.160;2024-01-30T04:02:31;13.45;;;5.80;;
4448;SDS011;2237;51.870;6.160;2024-01-30T04:04:58;11.63;;;5.88;;
4448;SDS011;2237;51.870;6.160;2024-01-30T04:07:25;14.93;;;6.50;;
4448;SDS011;2237;51.870;6.160;2024-01-30T04:09:51;13.35;;;6.18;;
4448;SDS011;2237;51.870;6.160;2024-01-30T04:12:18;13.85;;;6.10;;
4448;SDS011;2237;51.870;6.160;2024-01-30T04:14:44;12.07;;;6.35;;
4448;SDS011;2237;51.870;6.160;2024-01-30T04:17:10;12.10;;;6.13;;
4448;SDS011;2237;51.870;6.160;2024-01-30T04:19:37;10.98;;;5.47;;
4448;SDS011;2237;51.870;6.160;2024-01-30T04:22:04;11.90;;;6.07;;
4448;SDS011;2237;51.870;6.160;2024-01-30T04:24:31;11.68;;;5.65;;
4448;SDS011;2237;51.870;6.160;2024-01-30T04:26:58;11.77;;;6.03;;
4448;SDS011;2237;51.870;6.160;2024-01-30T04:29:24;11.05;;;5.65;;
4448;SDS011;2237;51.870;6.160;2024-01-30T04:31:50;12.45;;;6.38;;
4448;SDS011;2237;51.870;6.160;2024-01-30T04:34:17;10.07;;;5.68;;
4448;SDS011;2237;51.870;6.160;2024-01-30T04:36:44;12.32;;;6.30;;
4448;SDS011;2237;51.870;6.160;2024-01-30T04:39:11;11.23;;;5.78;;
4448;SDS011;2237;51.870;6.160;2024-01-30T04:41:38;12.15;;;5.95;;
4448;SDS011;2237;51.870;6.160;2024-01-30T04:44:05;11.73;;;5.90;;
4448;SDS011;2237;51.870;6.160;2024-01-30T04:46:32;15.25;;;6.68;;
4448;SDS011;2237;51.870;6.160;2024-01-30T04:49:00;14.27;;;6.72;;
4448;SDS011;2237;51.870;6.160;2024-01-30T04:51:27;13.60;;;6.22;;
4448;SDS011;2237;51.870;6.160;2024-01-30T04:53:53;13.57;;;6.65;;
4448;SDS011;2237;51.870;6.160;2024-01-30T04:56:20;11.35;;;5.95;;
4448;SDS011;2237;51.870;6.160;2024-01-30T04:58:46;13.65;;;6.13;;
4448;SDS011;2237;51.870;6.160;2024-01-30T05:01:16;12.68;;;6.10;;
4448;SDS011;2237;51.870;6.160;2024-01-30T05:03:43;12.23;;;6.22;;
4448;SDS011;2237;51.870;6.160;2024-01-30T05:06:10;11.48;;;5.32;;
4448;SDS011;2237;51.870;6.160;2024-01-30T05:08:36;9.52;;;5.35;;
4448;SDS011;2237;51.870;6.160;2024-01-30T05:11:05;11.32;;;5.60;;
4448;SDS011;2237;51.870;6.160;2024-01-30T05:13:31;14.55;;;5.95;;
4448;SDS011;2237;51.870;6.160;2024-01-30T05:15:58;12.05;;;5.90;;
4448;SDS011;2237;51.870;6.160;2024-01-30T05:18:24;8.65;;;5.18;;
4448;SDS011;2237;51.870;6.160;2024-01-30T05:20:51;11.20;;;5.68;;
4448;SDS011;2237;51.870;6.160;2024-01-30T05:23:17;10.88;;;5.38;;
4448;SDS011;2237;51.870;6.160;2024-01-30T05:25:44;14.02;;;5.72;;
4448;SDS011;2237;51.870;6.160;2024-01-30T05:28:10;12.65;;;5.68;;
4448;SDS011;2237;51.870;6.160;2024-01-30T05:30:37;10.85;;;5.40;;
4448;SDS011;2237;51.870;6.160;2024-01-30T05:33:03;10.15;;;5.18;;
4448;SDS011;2237;51.870;6.160;2024-01-30T05:35:30;8.75;;;4.63;;
4448;SDS011;2237;51.870;6.160;2024-01-30T05:37:57;8.23;;;4.72;;
4448;SDS011;2237;51.870;6.160;2024-01-30T05:40:23;9.65;;;4.70;;
4448;SDS011;2237;51.870;6.160;2024-01-30T05:42:50;8.80;;;4.03;;
4448;SDS011;2237;51.870;6.160;2024-01-30T05:45:16;11.32;;;5.30;;
4448;SDS011;2237;51.870;6.160;2024-01-30T05:47:43;8.77;;;5.03;;
4448;SDS011;2237;51.870;6.160;2024-01-30T05:50:09;10.00;;;5.22;;
4448;SDS011;2237;51.870;6.160;2024-01-30T05:52:36;8.63;;;4.55;;
4448;SDS011;2237;51.870;6.160;2024-01-30T05:55:02;8.80;;;4.95;;
4448;SDS011;2237;51.870;6.160;2024-01-30T05:57:29;11.07;;;4.68;;
4448;SDS011;2237;51.870;6.160;2024-01-30T05:59:56;10.68;;;4.95;;
4448;SDS011;2237;51.870;6.160;2024-01-30T06:02:22;12.75;;;5.03;;
4448;SDS011;2237;51.870;6.160;2024-01-30T06:04:48;11.70;;;5.63;;
4448;SDS011;2237;51.870;6.160;2024-01-30T06:07:15;12.57;;;5.53;;
4448;SDS011;2237;51.870;6.160;2024-01-30T06:09:43;11.93;;;4.82;;
4448;SDS011;2237;51.870;6.160;2024-01-30T06:12:10;11.75;;;4.68;;
4448;SDS011;2237;51.870;6.160;2024-01-30T06:14:38;9.73;;;4.30;;
4448;SDS011;2237;51.870;6.160;2024-01-30T06:17:05;10.18;;;4.93;;
4448;SDS011;2237;51.870;6.160;2024-01-30T06:19:31;6.68;;;4.22;;
4448;SDS011;2237;51.870;6.160;2024-01-30T06:21:58;10.57;;;5.03;;
4448;SDS011;2237;51.870;6.160;2024-01-30T06:24:24;9.80;;;5.25;;
4448;SDS011;2237;51.870;6.160;2024-01-30T06:26:51;10.95;;;4.70;;
4448;SDS011;2237;51.870;6.160;2024-01-30T06:29:17;8.10;;;4.63;;
4448;SDS011;2237;51.870;6.160;2024-01-30T06:31:45;11.75;;;4.45;;
4448;SDS011;2237;51.870;6.160;2024-01-30T06:34:12;9.13;;;4.63;;
4448;SDS011;2237;51.870;6.160;2024-01-30T06:36:38;10.93;;;4.55;;
4448;SDS011;2237;51.870;6.160;2024-01-30T06:39:05;10.43;;;4.97;;
4448;SDS011;2237;51.870;6.160;2024-01-30T06:41:33;11.38;;;4.82;;
4448;SDS011;2237;51.870;6.160;2024-01-30T06:44:02;7.45;;;4.05;;
4448;SDS011;2237;51.870;6.160;2024-01-30T06:46:30;10.20;;;4.40;;
4448;SDS011;2237;51.870;6.160;2024-01-30T06:48:56;9.15;;;4.22;;
4448;SDS011;2237;51.870;6.160;2024-01-30T06:51:23;9.65;;;5.18;;
4448;SDS011;2237;51.870;6.160;2024-01-30T06:53:49;17.85;;;7.95;;
4448;SDS011;2237;51.870;6.160;2024-01-30T06:56:16;10.38;;;4.82;;
4448;SDS011;2237;51.870;6.160;2024-01-30T06:58:47;9.05;;;4.93;;
4448;SDS011;2237;51.870;6.160;2024-01-30T07:01:14;8.85;;;4.45;;
4448;SDS011;2237;51.870;6.160;2024-01-30T07:03:41;10.90;;;4.55;;
4448;SDS011;2237;51.870;6.160;2024-01-30T07:06:08;9.05;;;4.72;;
4448;SDS011;2237;51.870;6.160;2024-01-30T07:08:37;8.95;;;4.60;;
4448;SDS011;2237;51.870;6.160;2024-01-30T07:11:06;8.82;;;4.80;;
4448;SDS011;2237;51.870;6.160;2024-01-30T07:13:34;8.48;;;4.80;;
4448;SDS011;2237;51.870;6.160;2024-01-30T07:16:01;8.80;;;4.60;;
4448;SDS011;2237;51.870;6.160;2024-01-30T07:18:28;9.48;;;4.50;;
4448;SDS011;2237;51.870;6.160;2024-01-30T07:20:54;11.05;;;5.15;;
4448;SDS011;2237;51.870;6.160;2024-01-30T07:23:20;9.32;;;4.70;;
4448;SDS011;2237;51.870;6.160;2024-01-30T07:25:47;7.95;;;4.28;;
4448;SDS011;2237;51.870;6.160;2024-01-30T07:28:16;10.70;;;5.03;;
4448;SDS011;2237;51.870;6.160;2024-01-30T07:30:43;9.50;;;4.28;;
4448;SDS011;2237;51.870;6.160;2024-01-30T07:33:09;8.13;;;4.05;;
4448;SDS011;2237;51.870;6.160;2024-01-30T07:35:36;9.10;;;4.57;;
4448;SDS011;2237;51.870;6.160;2024-01-30T07:38:03;11.77;;;4.57;;
4448;SDS011;2237;51.870;6.160;2024-01-30T07:40:29;8.43;;;4.60;;
4448;SDS011;2237;51.870;6.160;2024-01-30T07:42:56;10.68;;;4.53;;
4448;SDS011;2237;51.870;6.160;2024-01-30T07:45:22;9.65;;;4.75;;
4448;SDS011;2237;51.870;6.160;2024-01-30T07:47:51;13.98;;;4.82;;
4448;SDS011;2237;51.870;6.160;2024-01-30T07:50:17;7.53;;;3.78;;
4448;SDS011;2237;51.870;6.160;2024-01-30T07:52:45;9.02;;;4.82;;
4448;SDS011;2237;51.870;6.160;2024-01-30T07:55:11;9.23;;;5.15;;
4448;SDS011;2237;51.870;6.160;2024-01-30T07:57:39;8.90;;;4.60;;
4448;SDS011;2237;51.870;6.160;2024-01-30T08:00:06;10.82;;;4.93;;
4448;SDS011;2237;51.870;6.160;2024-01-30T08:02:33;10.13;;;4.30;;
4448;SDS011;2237;51.870;6.160;2024-01-30T08:05:00;8.93;;;4.50;;
4448;SDS011;2237;51.870;6.160;2024-01-30T08:07:26;8.18;;;4.55;;
4448;SDS011;2237;51.870;6.160;2024-01-30T08:09:55;9.27;;;4.90;;
4448;SDS011;2237;51.870;6.160;2024-01-30T08:12:22;8.23;;;4.68;;
4448;SDS011;2237;51.870;6.160;2024-01-30T08:14:48;9.63;;;5.30;;
4448;SDS011;2237;51.870;6.160;2024-01-30T08:17:15;11.05;;;4.90;;
4448;SDS011;2237;51.870;6.160;2024-01-30T08:19:41;9.52;;;5.53;;
4448;SDS011;2237;51.870;6.160;2024-01-30T08:22:08;9.18;;;4.03;;
4448;SDS011;2237;51.870;6.160;2024-01-30T08:24:34;9.45;;;5.10;;
4448;SDS011;2237;51.870;6.160;2024-01-30T08:27:01;10.68;;;4.75;;
4448;SDS011;2237;51.870;6.160;2024-01-30T08:29:28;8.75;;;4.63;;
4448;SDS011;2237;51.870;6.160;2024-01-30T08:31:55;8.43;;;4.05;;
4448;SDS011;2237;51.870;6.160;2024-01-30T08:34:21;10.75;;;4.25;;
4448;SDS011;2237;51.870;6.160;2024-01-30T08:36:48;7.50;;;4.32;;
4448;SDS011;2237;51.870;6.160;2024-01-30T08:39:14;9.40;;;4.80;;
4448;SDS011;2237;51.870;6.160;2024-01-30T08:41:41;6.85;;;3.92;;
4448;SDS011;2237;51.870;6.160;2024-01-30T08:44:07;9.57;;;4.22;;
4448;SDS011;2237;51.870;6.160;2024-01-30T08:46:34;8.98;;;3.95;;
4448;SDS011;2237;51.870;6.160;2024-01-30T08:49:01;7.20;;;3.55;;
4448;SDS011;2237;51.870;6.160;2024-01-30T08:51:29;2.88;;;1.83;;
4448;SDS011;2237;51.870;6.160;2024-01-30T08:53:56;5.10;;;2.28;;
4448;SDS011;2237;51.870;6.160;2024-01-30T08:56:23;7.10;;;3.67;;
4448;SDS011;2237;51.870;6.160;2024-01-30T08:58:49;5.65;;;2.88;;
4448;SDS011;2237;51.870;6.160;2024-01-30T09:01:16;7.18;;;3.70;;
4448;SDS011;2237;51.870;6.160;2024-01-30T09:03:42;5.10;;;3.20;;
4448;SDS011;2237;51.870;6.160;2024-01-30T09:06:11;6.38;;;3.35;;
4448;SDS011;2237;51.870;6.160;2024-01-30T09:08:38;8.38;;;3.72;;
4448;SDS011;2237;51.870;6.160;2024-01-30T09:11:12;7.13;;;3.47;;
4448;SDS011;2237;51.870;6.160;2024-01-30T09:13:39;8.88;;;4.93;;
4448;SDS011;2237;51.870;6.160;2024-01-30T09:16:06;7.90;;;3.90;;
4448;SDS011;2237;51.870;6.160;2024-01-30T09:18:33;5.88;;;3.00;;
4448;SDS011;2237;51.870;6.160;2024-01-30T09:21:00;5.75;;;2.03;;
4448;SDS011;2237;51.870;6.160;2024-01-30T09:23:29;9.02;;;3.58;;
4448;SDS011;2237;51.870;6.160;2024-01-30T09:25:55;6.80;;;3.55;;
4448;SDS011;2237;51.870;6.160;2024-01-30T09:28:22;10.98;;;3.75;;
4448;SDS011;2237;51.870;6.160;2024-01-30T09:30:52;7.75;;;1.95;;
4448;SDS011;2237;51.870;6.160;2024-01-30T09:33:18;6.15;;;3.70;;
4448;SDS011;2237;51.870;6.160;2024-01-30T09:35:46;9.20;;;3.60;;
4448;SDS011;2237;51.870;6.160;2024-01-30T09:38:12;6.88;;;3.30;;
4448;SDS011;2237;51.870;6.160;2024-01-30T09:40:39;8.07;;;3.30;;
4448;SDS011;2237;51.870;6.160;2024-01-30T09:43:05;11.38;;;3.40;;
4448;SDS011;2237;51.870;6.160;2024-01-30T09:45:32;5.47;;;3.45;;
4448;SDS011;2237;51.870;6.160;2024-01-30T09:47:59;8.50;;;3.47;;
4448;SDS011;2237;51.870;6.160;2024-01-30T09:50:26;6.15;;;2.95;;
4448;SDS011;2237;51.870;6.160;2024-01-30T09:52:53;9.98;;;4.00;;
4448;SDS011;2237;51.870;6.160;2024-01-30T09:55:23;7.57;;;3.33;;
4448;SDS011;2237;51.870;6.160;2024-01-30T09:57:50;6.85;;;3.05;;
4448;SDS011;2237;51.870;6.160;2024-01-30T10:00:16;6.45;;;3.65;;
4448;SDS011;2237;51.870;6.160;2024-01-30T10:02:43;9.68;;;4.18;;
4448;SDS011;2237;51.870;6.160;2024-01-30T10:05:11;7.80;;;3.88;;
4448;SDS011;2237;51.870;6.160;2024-01-30T10:07:52;9.93;;;4.30;;
4448;SDS011;2237;51.870;6.160;2024-01-30T10:10:23;7.10;;;3.95;;
4448;SDS011;2237;51.870;6.160;2024-01-30T10:12:50;7.80;;;3.78;;
4448;SDS011;2237;51.870;6.160;2024-01-30T10:15:17;8.30;;;4.22;;
4448;SDS011;2237;51.870;6.160;2024-01-30T10:17:44;9.02;;;4.45;;
4448;SDS011;2237;51.870;6.160;2024-01-30T10:20:12;9.07;;;3.78;;
4448;SDS011;2237;51.870;6.160;2024-01-30T10:22:40;6.00;;;3.22;;
4448;SDS011;2237;51.870;6.160;2024-01-30T10:25:09;9.15;;;4.18;;
4448;SDS011;2237;51.870;6.160;2024-01-30T10:27:39;11.75;;;4.22;;
4448;SDS011;2237;51.870;6.160;2024-01-30T10:30:06;8.52;;;3.13;;
4448;SDS011;2237;51.870;6.160;2024-01-30T10:32:33;7.45;;;4.00;;
4448;SDS011;2237;51.870;6.160;2024-01-30T10:35:00;6.95;;;3.45;;
4448;SDS011;2237;51.870;6.160;2024-01-30T10:37:27;8.05;;;3.42;;
4448;SDS011;2237;51.870;6.160;2024-01-30T10:39:57;9.80;;;4.43;;
4448;SDS011;2237;51.870;6.160;2024-01-30T10:42:31;8.63;;;4.10;;
4448;SDS011;2237;51.870;6.160;2024-01-30T10:47:35;8.93;;;4.03;;
4448;SDS011;2237;51.870;6.160;2024-01-30T10:50:05;9.35;;;4.88;;
4448;SDS011;2237;51.870;6.160;2024-01-30T10:52:32;11.13;;;4.00;;
4448;SDS011;2237;51.870;6.160;2024-01-30T10:54:59;8.02;;;3.58;;
4448;SDS011;2237;51.870;6.160;2024-01-30T10:57:26;6.55;;;3.67;;
4448;SDS011;2237;51.870;6.160;2024-01-30T10:59:55;10.15;;;4.78;;
4448;SDS011;2237;51.870;6.160;2024-01-30T11:02:24;8.97;;;3.73;;
4448;SDS011;2237;51.870;6.160;2024-01-30T11:04:55;8.57;;;4.10;;
4448;SDS011;2237;51.870;6.160;2024-01-30T11:07:24;7.80;;;4.20;;
4448;SDS011;2237;51.870;6.160;2024-01-30T11:09:53;9.75;;;3.95;;
4448;SDS011;2237;51.870;6.160;2024-01-30T11:12:30;8.70;;;4.45;;
4448;SDS011;2237;51.870;6.160;2024-01-30T11:17:39;8.73;;;3.78;;
4448;SDS011;2237;51.870;6.160;2024-01-30T11:20:09;9.82;;;5.07;;
4448;SDS011;2237;51.870;6.160;2024-01-30T11:22:45;8.82;;;4.32;;
4448;SDS011;2237;51.870;6.160;2024-01-30T11:25:13;9.20;;;4.22;;
4448;SDS011;2237;51.870;6.160;2024-01-30T11:27:44;11.75;;;4.07;;
4448;SDS011;2237;51.870;6.160;2024-01-30T11:30:20;7.97;;;4.00;;
4448;SDS011;2237;51.870;6.160;2024-01-30T11:33:00;10.15;;;4.30;;
4448;SDS011;2237;51.870;6.160;2024-01-30T11:35:29;7.05;;;3.67;;
4448;SDS011;2237;51.870;6.160;2024-01-30T11:37:57;9.90;;;4.38;;
4448;SDS011;2237;51.870;6.160;2024-01-30T11:40:25;7.35;;;3.85;;
4448;SDS011;2237;51.870;6.160;2024-01-30T11:42:56;10.10;;;4.22;;
4448;SDS011;2237;51.870;6.160;2024-01-30T11:45:25;7.30;;;3.80;;
4448;SDS011;2237;51.870;6.160;2024-01-30T11:47:53;9.02;;;3.40;;
4448;SDS011;2237;51.870;6.160;2024-01-30T11:50:21;7.57;;;3.30;;
4448;SDS011;2237;51.870;6.160;2024-01-30T11:52:48;16.48;;;3.60;;
4448;SDS011;2237;51.870;6.160;2024-01-30T11:55:15;14.73;;;3.20;;
4448;SDS011;2237;51.870;6.160;2024-01-30T11:57:41;5.70;;;3.42;;
4448;SDS011;2237;51.870;6.160;2024-01-30T12:00:14;8.18;;;3.17;;
4448;SDS011;2237;51.870;6.160;2024-01-30T12:02:42;4.10;;;2.30;;
4448;SDS011;2237;51.870;6.160;2024-01-30T12:05:09;9.30;;;2.67;;
4448;SDS011;2237;51.870;6.160;2024-01-30T12:07:36;4.70;;;2.05;;
4448;SDS011;2237;51.870;6.160;2024-01-30T12:10:03;7.20;;;3.75;;
4448;SDS011;2237;51.870;6.160;2024-01-30T12:12:31;9.00;;;3.45;;
4448;SDS011;2237;51.870;6.160;2024-01-30T12:14:58;7.38;;;3.13;;
4448;SDS011;2237;51.870;6.160;2024-01-30T12:17:31;9.00;;;3.42;;
4448;SDS011;2237;51.870;6.160;2024-01-30T12:20:04;10.82;;;3.40;;
4448;SDS011;2237;51.870;6.160;2024-01-30T12:22:38;6.43;;;2.83;;
4448;SDS011;2237;51.870;6.160;2024-01-30T12:25:09;6.85;;;2.80;;
4448;SDS011;2237;51.870;6.160;2024-01-30T12:27:54;6.40;;;2.80;;
4448;SDS011;2237;51.870;6.160;2024-01-30T12:30:21;6.05;;;3.08;;
4448;SDS011;2237;51.870;6.160;2024-01-30T12:32:50;5.13;;;2.50;;
4448;SDS011;2237;51.870;6.160;2024-01-30T12:35:18;7.45;;;2.38;;
4448;SDS011;2237;51.870;6.160;2024-01-30T12:37:46;4.95;;;2.20;;
4448;SDS011;2237;51.870;6.160;2024-01-30T12:40:13;6.85;;;2.95;;
4448;SDS011;2237;51.870;6.160;2024-01-30T12:42:41;8.07;;;4.00;;
4448;SDS011;2237;51.870;6.160;2024-01-30T12:45:09;10.43;;;3.35;;
4448;SDS011;2237;51.870;6.160;2024-01-30T12:47:36;10.98;;;3.40;;
4448;SDS011;2237;51.870;6.160;2024-01-30T12:50:02;4.65;;;2.25;;
4448;SDS011;2237;51.870;6.160;2024-01-30T12:52:29;6.55;;;3.30;;
4448;SDS011;2237;51.870;6.160;2024-01-30T12:54:56;7.03;;;3.03;;
4448;SDS011;2237;51.870;6.160;2024-01-30T12:57:22;7.50;;;2.83;;
4448;SDS011;2237;51.870;6.160;2024-01-30T12:59:49;7.97;;;2.40;;
4448;SDS011;2237;51.870;6.160;2024-01-30T13:02:15;5.03;;;2.47;;
4448;SDS011;2237;51.870;6.160;2024-01-30T13:04:42;6.22;;;3.10;;
4448;SDS011;2237;51.870;6.160;2024-01-30T13:07:12;4.45;;;2.30;;
4448;SDS011;2237;51.870;6.160;2024-01-30T13:09:38;4.55;;;2.47;;
4448;SDS011;2237;51.870;6.160;2024-01-30T13:12:05;8.48;;;2.90;;
4448;SDS011;2237;51.870;6.160;2024-01-30T13:14:31;6.00;;;2.70;;
4448;SDS011;2237;51.870;6.160;2024-01-30T13:16:58;5.45;;;2.10;;
4448;SDS011;2237;51.870;6.160;2024-01-30T13:19:25;4.68;;;2.08;;
4448;SDS011;2237;51.870;6.160;2024-01-30T13:21:51;5.50;;;2.83;;
4448;SDS011;2237;51.870;6.160;2024-01-30T13:24:18;5.07;;;1.70;;
4448;SDS011;2237;51.870;6.160;2024-01-30T13:26:47;3.38;;;1.35;;
4448;SDS011;2237;51.870;6.160;2024-01-30T13:29:15;8.20;;;2.15;;
4448;SDS011;2237;51.870;6.160;2024-01-30T13:31:41;3.30;;;1.58;;
4448;SDS011;2237;51.870;6.160;2024-01-30T13:34:08;4.20;;;1.25;;
4448;SDS011;2237;51.870;6.160;2024-01-30T13:36:34;1.20;;;0.95;;
4448;SDS011;2237;51.870;6.160;2024-01-30T13:39:01;3.55;;;1.23;;
4448;SDS011;2237;51.870;6.160;2024-01-30T13:41:28;3.20;;;1.00;;
4448;SDS011;2237;51.870;6.160;2024-01-30T13:43:56;1.25;;;0.57;;
4448;SDS011;2237;51.870;6.160;2024-01-30T13:46:22;4.03;;;0.93;;
4448;SDS011;2237;51.870;6.160;2024-01-30T13:48:49;2.75;;;1.00;;
4448;SDS011;2237;51.870;6.160;2024-01-30T13:51:15;5.25;;;0.90;;
4448;SDS011;2237;51.870;6.160;2024-01-30T13:53:43;3.17;;;0.90;;
4448;SDS011;2237;51.870;6.160;2024-01-30T13:56:09;2.50;;;0.73;;
4448;SDS011;2237;51.870;6.160;2024-01-30T13:58:36;4.05;;;0.70;;
4448;SDS011;2237;51.870;6.160;2024-01-30T14:01:03;3.55;;;0.57;;
4448;SDS011;2237;51.870;6.160;2024-01-30T14:03:31;1.90;;;0.70;;
4448;SDS011;2237;51.870;6.160;2024-01-30T14:05:58;1.58;;;0.60;;
4448;SDS011;2237;51.870;6.160;2024-01-30T14:08:25;5.68;;;0.52;;
4448;SDS011;2237;51.870;6.160;2024-01-30T14:10:54;1.83;;;0.40;;
4448;SDS011;2237;51.870;6.160;2024-01-30T14:13:23;1.83;;;0.45;;
4448;SDS011;2237;51.870;6.160;2024-01-30T14:15:51;2.33;;;0.70;;
4448;SDS011;2237;51.870;6.160;2024-01-30T14:18:19;1.58;;;0.47;;
4448;SDS011;2237;51.870;6.160;2024-01-30T14:20:45;2.30;;;0.50;;
4448;SDS011;2237;51.870;6.160;2024-01-30T14:23:12;3.80;;;0.57;;
4448;SDS011;2237;51.870;6.160;2024-01-30T14:25:38;0.75;;;0.20;;
4448;SDS011;2237;51.870;6.160;2024-01-30T14:28:05;2.60;;;0.32;;
4448;SDS011;2237;51.870;6.160;2024-01-30T14:30:33;1.92;;;0.30;;
4448;SDS011;2237;51.870;6.160;2024-01-30T14:32:59;1.00;;;0.35;;
4448;SDS011;2237;51.870;6.160;2024-01-30T14:35:26;2.63;;;0.30;;
4448;SDS011;2237;51.870;6.160;2024-01-30T14:37:52;0.52;;;0.20;;
4448;SDS011;2237;51.870;6.160;2024-01-30T14:40:19;2.35;;;0.40;;
4448;SDS011;2237;51.870;6.160;2024-01-30T14:42:46;2.08;;;0.25;;
4448;SDS011;2237;51.870;6.160;2024-01-30T14:45:13;1.42;;;0.50;;
4448;SDS011;2237;51.870;6.160;2024-01-30T14:47:39;1.90;;;0.70;;
4448;SDS011;2237;51.870;6.160;2024-01-30T14:50:07;2.22;;;0.57;;
4448;SDS011;2237;51.870;6.160;2024-01-30T14:52:35;2.05;;;0.85;;
4448;SDS011;2237;51.870;6.160;2024-01-30T14:55:02;2.83;;;1.13;;
4448;SDS011;2237;51.870;6.160;2024-01-30T14:57:29;2.40;;;1.23;;
4448;SDS011;2237;51.870;6.160;2024-01-30T14:59:56;4.45;;;0.90;;
4448;SDS011;2237;51.870;6.160;2024-01-30T15:02:22;2.60;;;0.93;;
4448;SDS011;2237;51.870;6.160;2024-01-30T15:04:49;3.70;;;1.45;;
4448;SDS011;2237;51.870;6.160;2024-01-30T15:07:15;5.40;;;1.45;;
4448;SDS011;2237;51.870;6.160;2024-01-30T15:09:57;5.28;;;1.75;;
4448;SDS011;2237;51.870;6.160;2024-01-30T15:12:25;5.47;;;1.88;;